Time;durP1;ratioP1;P1;durP2;ratioP2;P2;SDS_P1;SDS_P2;PMS_P1;PMS_P2;Temp;Humidity;BMP_temperature;BMP_pressure;BME280_temperature;BME280_humidity;BME280_pressure;Samples;Min_cycle;Max_cycle;Signal;HPM_P1;HPM_P2
2022/12/17 13:06:14;;;;;;;25.25;13.48;;;;;;;;;;5017715;28;20044;-75
2022/12/17 13:08:40;;;;;;;25.48;12.90;;;;;;;;;;5017795;28;20105;-77
2022/12/17 13:11:27;;;;;;;29.25;13.48;;;;;;;;;;5018927;28;20049;-75
2022/12/17 13:13:54;;;;;;;24.50;13.55;;;;;;;;;;5019521;28;20018;-78
2022/12/17 13:16:49;;;;;;;31.45;14.98;;;;;;;;;;5021639;28;20029;-75
2022/12/17 13:19:17;;;;;;;27.33;13.65;;;;;;;;;;5022129;28;20037;-75
2022/12/17 13:21:43;;;;;;;27.33;14.00;;;;;;;;;;5023594;28;20332;-76
2022/12/17 13:24:10;;;;;;;25.27;13.50;;;;;;;;;;5026165;28;20026;-77
2022/12/17 13:26:39;;;;;;;27.42;13.85;;;;;;;;;;5015573;28;20034;-76
2022/12/17 13:29:20;;;;;;;24.00;13.60;;;;;;;;;;5018179;28;20454;-73
2022/12/17 13:31:58;;;;;;;24.80;13.98;;;;;;;;;;5015828;28;20099;-73
2022/12/17 13:34:27;;;;;;;32.70;14.65;;;;;;;;;;5015588;28;20033;-74
2022/12/17 13:37:26;;;;;;;24.65;13.93;;;;;;;;;;5015722;28;20025;-76
2022/12/17 13:39:59;;;;;;;29.42;14.52;;;;;;;;;;5025059;28;20059;-78
2022/12/17 13:42:29;;;;;;;26.48;14.73;;;;;;;;;;5025383;28;20049;-78
2022/12/17 13:44:56;;;;;;;29.08;15.40;;;;;;;;;;5034973;28;20063;-77
2022/12/17 13:47:24;;;;;;;33.05;16.77;;;;;;;;;;5035893;28;20037;-77
2022/12/17 13:49:51;;;;;;;37.33;17.30;;;;;;;;;;5035097;28;20022;-76
2022/12/17 13:52:18;;;;;;;30.17;16.08;;;;;;;;;;5036599;28;20044;-77
2022/12/17 13:54:44;;;;;;;33.13;15.40;;;;;;;;;;5036543;28;20029;-78
2022/12/17 13:57:14;;;;;;;29.88;15.88;;;;;;;;;;5034370;28;20030;-78
2022/12/17 13:59:40;;;;;;;29.50;15.95;;;;;;;;;;5036396;28;20057;-76
2022/12/17 14:02:20;;;;;;;30.85;15.77;;;;;;;;;;5040039;28;20021;-76
2022/12/17 14:04:51;;;;;;;33.05;16.55;;;;;;;;;;5041398;28;20021;-75
2022/12/17 14:07:17;;;;;;;28.45;16.20;;;;;;;;;;5042690;28;20069;-77
2022/12/17 14:09:43;;;;;;;30.98;16.52;;;;;;;;;;5042079;28;20025;-75
2022/12/17 14:12:23;;;;;;;30.73;16.48;;;;;;;;;;5043045;28;20048;-74
2022/12/17 14:14:57;;;;;;;34.50;17.73;;;;;;;;;;5041556;28;20513;-74
2022/12/17 14:17:25;;;;;;;42.05;17.63;;;;;;;;;;5044572;28;20064;-76
2022/12/17 14:20:17;;;;;;;35.00;18.40;;;;;;;;;;5041598;28;20050;-76
2022/12/17 14:22:44;;;;;;;37.63;18.05;;;;;;;;;;5024232;28;20478;-76
2022/12/17 14:25:18;;;;;;;35.88;17.70;;;;;;;;;;5034668;28;20483;-75
2022/12/17 14:27:53;;;;;;;40.58;17.95;;;;;;;;;;5033374;28;20025;-76
2022/12/17 14:30:39;;;;;;;39.10;19.92;;;;;;;;;;5035911;28;20057;-77
2022/12/17 14:33:27;;;;;;;38.15;18.95;;;;;;;;;;5029701;28;20060;-77
2022/12/17 14:35:57;;;;;;;38.78;19.92;;;;;;;;;;5034235;28;20034;-78
2022/12/17 14:38:23;;;;;;;40.13;19.80;;;;;;;;;;5033556;28;20490;-76
2022/12/17 14:40:49;;;;;;;44.47;20.30;;;;;;;;;;5033810;28;20441;-77
2022/12/17 14:43:15;;;;;;;35.90;19.05;;;;;;;;;;5032680;28;20453;-78
2022/12/17 14:48:59;;;;;;;52.30;24.33;;;;;;;;;;5034776;28;20052;-75
2022/12/17 14:51:33;;;;;;;43.33;20.48;;;;;;;;;;5039627;28;20048;-78
2022/12/17 14:54:18;;;;;;;45.73;20.83;;;;;;;;;;5035663;28;20436;-75
2022/12/17 14:56:45;;;;;;;46.53;21.23;;;;;;;;;;5036707;28;20061;-75
2022/12/17 14:59:22;;;;;;;43.83;21.33;;;;;;;;;;5036302;28;20450;-75
2022/12/17 15:01:49;;;;;;;50.47;22.05;;;;;;;;;;5035522;28;20037;-75
2022/12/17 15:04:16;;;;;;;48.00;21.75;;;;;;;;;;5033685;28;20087;-76
2022/12/17 15:06:42;;;;;;;45.72;21.80;;;;;;;;;;5034418;28;20036;-76
2022/12/17 15:09:09;;;;;;;42.90;22.65;;;;;;;;;;5035638;28;20021;-76
2022/12/17 15:11:35;;;;;;;44.28;22.48;;;;;;;;;;5035404;28;20029;-75
2022/12/17 15:14:01;;;;;;;50.10;22.70;;;;;;;;;;5035719;28;20029;-76
2022/12/17 15:16:27;;;;;;;56.28;25.42;;;;;;;;;;5034745;28;20026;-75
2022/12/17 15:18:53;;;;;;;47.70;22.92;;;;;;;;;;5037054;28;20104;-75
2022/12/17 15:21:19;;;;;;;54.35;23.30;;;;;;;;;;5037384;28;20025;-75
2022/12/17 15:23:46;;;;;;;47.35;23.45;;;;;;;;;;5042423;28;20025;-75
2022/12/17 15:26:13;;;;;;;45.45;23.23;;;;;;;;;;5056450;28;20065;-75
2022/12/17 15:28:40;;;;;;;48.35;23.17;;;;;;;;;;5058139;28;20013;-76
2022/12/17 15:31:05;;;;;;;48.35;22.20;;;;;;;;;;5056981;28;20036;-75
2022/12/17 15:33:31;;;;;;;49.60;23.58;;;;;;;;;;5050916;28;20033;-76
2022/12/17 15:35:58;;;;;;;49.25;23.88;;;;;;;;;;5041320;28;20116;-76
2022/12/17 15:38:24;;;;;;;50.13;24.23;;;;;;;;;;5035724;28;20121;-75
2022/12/17 15:40:53;;;;;;;96.95;40.00;;;;;;;;;;5035719;28;20053;-77
2022/12/17 15:43:19;;;;;;;68.57;30.00;;;;;;;;;;5034270;28;20176;-75
2022/12/17 15:45:49;;;;;;;52.60;25.02;;;;;;;;;;5035282;28;20044;-77
2022/12/17 15:48:16;;;;;;;57.17;25.05;;;;;;;;;;5036050;28;20053;-77
2022/12/17 15:50:42;;;;;;;53.33;25.23;;;;;;;;;;5039953;28;20108;-79
2022/12/17 15:53:09;;;;;;;62.00;24.85;;;;;;;;;;5038970;28;20466;-77
2022/12/17 15:55:35;;;;;;;54.60;25.65;;;;;;;;;;5043467;28;20040;-77
2022/12/17 15:58:01;;;;;;;58.83;27.02;;;;;;;;;;5039713;28;20020;-76
2022/12/17 16:00:27;;;;;;;54.42;25.92;;;;;;;;;;5035991;28;20022;-76
2022/12/17 16:02:53;;;;;;;59.88;26.75;;;;;;;;;;5034411;28;20355;-76
2022/12/17 16:05:20;;;;;;;59.65;26.05;;;;;;;;;;5033189;28;20052;-74
2022/12/17 16:07:46;;;;;;;52.03;24.83;;;;;;;;;;5036428;28;20052;-76
2022/12/17 16:10:13;;;;;;;49.58;25.50;;;;;;;;;;5037428;28;20030;-77
2022/12/17 16:12:39;;;;;;;57.13;25.40;;;;;;;;;;5038096;28;20026;-76
2022/12/17 16:15:05;;;;;;;56.88;26.67;;;;;;;;;;5036652;28;20167;-76
2022/12/17 16:17:31;;;;;;;55.20;25.67;;;;;;;;;;5037399;28;20029;-76
2022/12/17 16:19:57;;;;;;;62.28;27.85;;;;;;;;;;5038556;28;20142;-76
2022/12/17 16:22:23;;;;;;;51.85;24.30;;;;;;;;;;5038760;28;20408;-76
2022/12/17 16:24:51;;;;;;;56.85;23.17;;;;;;;;;;5036537;28;20069;-75
2022/12/17 16:27:17;;;;;;;58.95;24.65;;;;;;;;;;5036058;28;20029;-74
2022/12/17 16:29:44;;;;;;;58.13;24.27;;;;;;;;;;5035916;28;20109;-76
2022/12/17 16:32:10;;;;;;;58.90;23.00;;;;;;;;;;5034549;28;20071;-75
2022/12/17 16:34:36;;;;;;;50.22;22.35;;;;;;;;;;5035560;28;20033;-76
2022/12/17 16:37:02;;;;;;;50.45;23.42;;;;;;;;;;5034528;28;20025;-75
2022/12/17 16:39:28;;;;;;;58.47;22.83;;;;;;;;;;5034839;28;20032;-76
2022/12/17 16:41:54;;;;;;;57.83;23.35;;;;;;;;;;5035173;28;20025;-76
2022/12/17 16:44:20;;;;;;;51.75;23.15;;;;;;;;;;5035417;28;20026;-76
2022/12/17 16:46:46;;;;;;;54.83;22.90;;;;;;;;;;5036756;28;20375;-74
2022/12/17 16:49:15;;;;;;;53.63;23.02;;;;;;;;;;5036431;28;20030;-76
2022/12/17 16:51:41;;;;;;;45.88;21.25;;;;;;;;;;5036422;28;20103;-75
2022/12/17 16:54:18;;;;;;;50.47;21.95;;;;;;;;;;5036987;28;20363;-76
2022/12/17 16:56:45;;;;;;;50.53;21.50;;;;;;;;;;5036335;28;20029;-77
2022/12/17 16:59:12;;;;;;;50.80;21.10;;;;;;;;;;5037429;28;20101;-76
2022/12/17 17:01:39;;;;;;;47.80;21.00;;;;;;;;;;5035179;28;20047;-75
2022/12/17 17:04:06;;;;;;;46.22;20.95;;;;;;;;;;5036882;28;20101;-74
2022/12/17 17:06:32;;;;;;;49.05;21.13;;;;;;;;;;5036160;28;20340;-77
2022/12/17 17:08:58;;;;;;;49.33;20.90;;;;;;;;;;5036474;28;20028;-78
2022/12/17 17:11:24;;;;;;;53.47;23.33;;;;;;;;;;5036998;28;20113;-77
2022/12/17 17:13:51;;;;;;;72.57;30.92;;;;;;;;;;5038876;28;20025;-76
2022/12/17 17:16:18;;;;;;;49.28;21.85;;;;;;;;;;5038301;28;20025;-76
2022/12/17 17:18:45;;;;;;;48.33;21.05;;;;;;;;;;5034688;28;20030;-77
2022/12/17 17:21:22;;;;;;;86.53;34.30;;;;;;;;;;5035971;28;20063;-77
2022/12/17 17:23:49;;;;;;;59.65;23.67;;;;;;;;;;5035572;28;20026;-76
2022/12/17 17:26:16;;;;;;;52.53;23.25;;;;;;;;;;5029856;28;20101;-78
2022/12/17 17:28:42;;;;;;;40.55;18.92;;;;;;;;;;5035042;28;20033;-78
2022/12/17 17:31:10;;;;;;;40.72;20.25;;;;;;;;;;5036327;28;20026;-79
2022/12/17 17:33:38;;;;;;;52.85;21.85;;;;;;;;;;5038056;28;20025;-80
2022/12/17 17:36:08;;;;;;;47.90;21.17;;;;;;;;;;5041354;28;20026;-79
2022/12/17 17:38:35;;;;;;;45.28;20.95;;;;;;;;;;5026677;28;20100;-77
2022/12/17 17:41:02;;;;;;;48.55;20.80;;;;;;;;;;5040376;28;20033;-80
2022/12/17 17:43:28;;;;;;;50.08;21.83;;;;;;;;;;5037896;28;20029;-78
2022/12/17 17:45:57;;;;;;;46.25;21.85;;;;;;;;;;5037544;28;20068;-76
2022/12/17 17:48:23;;;;;;;71.47;30.90;;;;;;;;;;5038396;28;20033;-77
2022/12/17 17:51:00;;;;;;;51.17;23.02;;;;;;;;;;5042476;28;20473;-77
2022/12/17 17:53:26;;;;;;;46.75;21.35;;;;;;;;;;5036331;28;20022;-78
2022/12/17 17:55:52;;;;;;;69.32;31.60;;;;;;;;;;5042555;28;20075;-77
2022/12/17 17:58:19;;;;;;;48.20;21.75;;;;;;;;;;5047790;28;20030;-77
2022/12/17 18:00:45;;;;;;;48.22;20.95;;;;;;;;;;5048151;28;20021;-76
2022/12/17 18:03:10;;;;;;;44.70;20.88;;;;;;;;;;5049773;28;20085;-78
2022/12/17 18:05:37;;;;;;;47.55;21.75;;;;;;;;;;5060543;28;20044;-76
2022/12/17 18:08:03;;;;;;;46.97;21.00;;;;;;;;;;5060997;28;20033;-78
2022/12/17 18:10:29;;;;;;;48.15;22.55;;;;;;;;;;5046071;28;20025;-78
2022/12/17 18:16:00;;;;;;;52.57;24.30;;;;;;;;;;5012288;28;20086;-79
2022/12/17 18:18:26;;;;;;;45.17;22.17;;;;;;;;;;5035793;28;20052;-79
2022/12/17 18:21:01;;;;;;;58.25;26.27;;;;;;;;;;5044528;28;20029;-78
2022/12/17 18:23:27;;;;;;;54.20;26.77;;;;;;;;;;5057625;28;20037;-79
2022/12/17 18:25:53;;;;;;;58.13;25.83;;;;;;;;;;5056205;28;20033;-75
2022/12/17 18:28:19;;;;;;;52.97;26.05;;;;;;;;;;5056741;28;20037;-77
2022/12/17 18:30:45;;;;;;;54.22;25.40;;;;;;;;;;5056293;28;20021;-79
2022/12/17 18:33:11;;;;;;;52.75;25.73;;;;;;;;;;5054198;28;20030;-79
2022/12/17 18:35:37;;;;;;;63.05;26.75;;;;;;;;;;5047516;28;20025;-78
2022/12/17 18:38:03;;;;;;;56.78;26.65;;;;;;;;;;5037003;28;20069;-78
2022/12/17 18:40:29;;;;;;;53.85;27.33;;;;;;;;;;5036091;28;20075;-77
2022/12/17 18:45:39;;;;;;;54.65;27.35;;;;;;;;;;5028317;28;20508;-78
2022/12/17 18:48:05;;;;;;;66.05;29.52;;;;;;;;;;5034907;28;20021;-78
2022/12/17 18:50:31;;;;;;;63.53;28.42;;;;;;;;;;5035341;28;20026;-77
2022/12/17 18:52:57;;;;;;;58.90;26.73;;;;;;;;;;5035317;28;20399;-78
2022/12/17 18:55:23;;;;;;;58.92;27.90;;;;;;;;;;5034543;28;20064;-79
2022/12/17 18:57:49;;;;;;;51.60;26.63;;;;;;;;;;5034690;28;20026;-76
2022/12/17 19:00:15;;;;;;;56.88;27.02;;;;;;;;;;5034342;28;20030;-78
2022/12/17 19:02:42;;;;;;;58.63;26.70;;;;;;;;;;5034313;28;20485;-76
2022/12/17 19:05:08;;;;;;;56.63;26.17;;;;;;;;;;5035146;28;20105;-76
2022/12/17 19:07:34;;;;;;;63.63;28.63;;;;;;;;;;5033492;28;20063;-77
2022/12/17 19:10:00;;;;;;;59.40;27.63;;;;;;;;;;5037208;28;20079;-78
2022/12/17 19:12:26;;;;;;;57.10;26.75;;;;;;;;;;5034495;28;20068;-79
2022/12/17 19:14:52;;;;;;;56.55;28.88;;;;;;;;;;5035437;28;20044;-79
2022/12/17 19:17:18;;;;;;;63.97;27.70;;;;;;;;;;5034613;28;20033;-77
2022/12/17 19:19:44;;;;;;;59.88;27.10;;;;;;;;;;5044249;28;20033;-77
2022/12/17 19:22:10;;;;;;;62.38;27.50;;;;;;;;;;5055305;28;20025;-77
2022/12/17 19:24:36;;;;;;;62.22;28.25;;;;;;;;;;5045490;28;20077;-78
2022/12/17 19:27:02;;;;;;;61.53;28.45;;;;;;;;;;5035390;28;20029;-78
2022/12/17 19:29:28;;;;;;;65.10;30.80;;;;;;;;;;5034888;28;20032;-79
2022/12/17 19:31:54;;;;;;;67.63;30.85;;;;;;;;;;5034080;28;20387;-78
2022/12/17 19:34:20;;;;;;;68.47;30.30;;;;;;;;;;5035723;28;20052;-76
2022/12/17 19:36:46;;;;;;;67.80;30.05;;;;;;;;;;5035648;28;20036;-78
2022/12/17 19:39:14;;;;;;;69.70;33.72;;;;;;;;;;5035375;28;20033;-78
2022/12/17 19:41:40;;;;;;;70.43;30.05;;;;;;;;;;5035619;28;20485;-78
2022/12/17 19:44:07;;;;;;;72.90;31.90;;;;;;;;;;5035515;28;20088;-78
2022/12/17 19:46:34;;;;;;;69.75;31.55;;;;;;;;;;5034700;28;20125;-78
2022/12/17 19:49:00;;;;;;;64.93;30.92;;;;;;;;;;5036049;28;20045;-77
2022/12/17 19:51:27;;;;;;;68.50;30.25;;;;;;;;;;5035960;28;20037;-77
2022/12/17 19:53:54;;;;;;;64.38;29.35;;;;;;;;;;5035838;28;20037;-78
2022/12/17 19:56:30;;;;;;;66.85;30.30;;;;;;;;;;5038595;28;20125;-79
2022/12/17 19:58:59;;;;;;;64.68;29.85;;;;;;;;;;5043761;28;20041;-79
2022/12/17 20:01:26;;;;;;;64.88;28.63;;;;;;;;;;5052307;28;20029;-78
2022/12/17 20:03:53;;;;;;;65.05;28.75;;;;;;;;;;5050421;28;20025;-79
2022/12/17 20:06:20;;;;;;;66.55;29.90;;;;;;;;;;5042811;28;20471;-78
2022/12/17 20:08:46;;;;;;;63.42;28.50;;;;;;;;;;5043820;28;20032;-79
2022/12/17 20:11:31;;;;;;;67.68;30.35;;;;;;;;;;5043978;28;20033;-79
2022/12/17 20:14:16;;;;;;;68.22;30.00;;;;;;;;;;5044109;28;20108;-78
2022/12/17 20:16:42;;;;;;;;;;;;;;;;;;5045340;28;20071;-79
2022/12/17 20:19:10;;;;;;;61.55;29.67;;;;;;;;;;5044019;28;20363;-77
2022/12/17 20:21:36;;;;;;;58.75;29.15;;;;;;;;;;5041784;28;20029;-80
2022/12/17 20:24:02;;;;;;;73.65;32.60;;;;;;;;;;5043403;28;20021;-79
2022/12/17 20:26:31;;;;;;;67.63;31.70;;;;;;;;;;5038273;28;20095;-78
2022/12/17 20:28:58;;;;;;;69.15;32.40;;;;;;;;;;5039059;28;20140;-77
2022/12/17 20:31:24;;;;;;;66.05;31.17;;;;;;;;;;5039443;28;20051;-78
2022/12/17 20:33:50;;;;;;;78.97;32.83;;;;;;;;;;5036805;28;20495;-77
2022/12/17 20:36:17;;;;;;;69.18;31.77;;;;;;;;;;5036089;28;20079;-78
2022/12/17 20:38:43;;;;;;;75.00;31.55;;;;;;;;;;5038271;28;20102;-77
2022/12/17 20:41:10;;;;;;;67.95;31.27;;;;;;;;;;5037279;28;20519;-78
2022/12/17 20:43:36;;;;;;;65.60;32.45;;;;;;;;;;5037734;28;20471;-76
2022/12/17 20:46:02;;;;;;;69.50;32.40;;;;;;;;;;5038244;28;20401;-78
2022/12/17 20:48:28;;;;;;;71.28;32.28;;;;;;;;;;5038365;28;20028;-78
2022/12/17 20:50:54;;;;;;;71.53;33.50;;;;;;;;;;5038523;28;20036;-79
2022/12/17 20:53:20;;;;;;;76.80;33.30;;;;;;;;;;5040661;28;20044;-79
2022/12/17 20:55:46;;;;;;;70.53;31.88;;;;;;;;;;5038172;28;20075;-79
2022/12/17 20:58:14;;;;;;;69.10;31.85;;;;;;;;;;5040893;28;20366;-77
2022/12/17 21:00:40;;;;;;;67.90;31.50;;;;;;;;;;5058965;28;20058;-80
2022/12/17 21:03:06;;;;;;;62.88;31.20;;;;;;;;;;5042106;28;20483;-79
2022/12/17 21:05:34;;;;;;;83.38;38.03;;;;;;;;;;5042752;28;20049;-78
2022/12/17 21:08:00;;;;;;;79.78;36.60;;;;;;;;;;5046836;28;20033;-78
2022/12/17 21:10:26;;;;;;;70.95;35.38;;;;;;;;;;5044195;28;20146;-77
2022/12/17 21:15:36;;;;;;;76.10;35.80;;;;;;;;;;5043962;28;20052;-77
2022/12/17 21:18:02;;;;;;;78.57;37.53;;;;;;;;;;5043829;28;20029;-78
2022/12/17 21:20:28;;;;;;;84.35;36.05;;;;;;;;;;5045454;28;20017;-76
2022/12/17 21:22:54;;;;;;;83.25;35.72;;;;;;;;;;5041106;28;20132;-79
2022/12/17 21:25:20;;;;;;;79.50;35.45;;;;;;;;;;5036368;28;20033;-80
2022/12/17 21:27:46;;;;;;;81.50;34.80;;;;;;;;;;5044424;28;20094;-79
2022/12/17 21:30:15;;;;;;;70.25;32.58;;;;;;;;;;5045700;28;20034;-78
2022/12/17 21:32:41;;;;;;;74.60;34.80;;;;;;;;;;5047402;28;20101;-78
2022/12/17 21:35:07;;;;;;;74.63;34.00;;;;;;;;;;5048794;28;20033;-79
2022/12/17 21:37:33;;;;;;;82.72;35.35;;;;;;;;;;5046758;28;20032;-78
2022/12/17 21:40:00;;;;;;;78.90;35.72;;;;;;;;;;5045213;28;20025;-77
2022/12/17 21:45:11;;;;;;;76.53;35.17;;;;;;;;;;5042464;28;20060;-78
2022/12/17 21:47:37;;;;;;;70.90;34.70;;;;;;;;;;5047782;28;20029;-79
2022/12/17 21:50:03;;;;;;;82.38;36.17;;;;;;;;;;5049816;28;20033;-78
2022/12/17 21:52:29;;;;;;;80.57;36.67;;;;;;;;;;5046402;28;20040;-79
2022/12/17 21:54:55;;;;;;;85.93;37.67;;;;;;;;;;5049418;28;20037;-78
2022/12/17 21:57:21;;;;;;;80.70;36.40;;;;;;;;;;5050090;28;20021;-78
2022/12/17 21:59:47;;;;;;;78.80;37.63;;;;;;;;;;5043303;28;20658;-79
2022/12/17 22:02:13;;;;;;;84.25;37.47;;;;;;;;;;5038168;28;20026;-80
2022/12/17 22:04:39;;;;;;;95.95;39.58;;;;;;;;;;5048665;28;20364;-78
2022/12/17 22:07:05;;;;;;;86.63;36.28;;;;;;;;;;5036707;28;20022;-77
2022/12/17 22:09:31;;;;;;;74.05;33.10;;;;;;;;;;5035921;28;20021;-78
2022/12/17 22:14:01;;;;;;;92.85;37.85;;;;;;;;;;5043844;28;20390;-77
2022/12/17 22:14:42;;;;;;;85.15;37.25;;;;;;;;;;5033416;28;20069;-77
2022/12/17 22:17:08;;;;;;;81.00;36.33;;;;;;;;;;5039985;28;20034;-82
2022/12/17 22:19:34;;;;;;;80.22;36.47;;;;;;;;;;5040158;28;20040;-79
2022/12/17 22:22:00;;;;;;;74.90;33.92;;;;;;;;;;5038223;28;20112;-79
2022/12/17 22:24:26;;;;;;;65.30;26.00;;;;;;;;;;5039946;28;20033;-79
2022/12/17 22:26:58;;;;;;;77.00;33.95;;;;;;;;;;5042288;28;20125;-78
2022/12/17 22:34:57;;;;;;;75.78;33.03;;;;;;;;;;5034959;28;20098;-78
2022/12/17 22:37:23;;;;;;;74.60;33.05;;;;;;;;;;5033766;28;20022;-78
2022/12/17 22:39:49;;;;;;;72.10;32.03;;;;;;;;;;5033466;28;20574;-78
2022/12/17 22:45:00;;;;;;;;;;;;;;;;;;5034651;28;20044;-78
2022/12/17 22:47:26;;;;;;;89.93;38.83;;;;;;;;;;5033744;28;19908;-76
2022/12/17 22:49:52;;;;;;;84.65;35.75;;;;;;;;;;5033928;28;20521;-77
2022/12/17 22:52:18;;;;;;;81.30;35.83;;;;;;;;;;5039008;28;20032;-78
2022/12/17 22:54:44;;;;;;;82.07;35.45;;;;;;;;;;5032886;28;20091;-78
2022/12/17 22:57:10;;;;;;;72.28;33.75;;;;;;;;;;5036404;28;20033;-76
2022/12/17 22:59:36;;;;;;;68.15;31.65;;;;;;;;;;5036147;28;20021;-78
2022/12/17 23:02:02;;;;;;;72.07;30.27;;;;;;;;;;5037419;28;20059;-77
2022/12/17 23:04:27;;;;;;;70.75;30.42;;;;;;;;;;5033689;28;20026;-78
2022/12/17 23:06:53;;;;;;;69.55;30.55;;;;;;;;;;5032197;28;20029;-78
2022/12/17 23:09:19;;;;;;;62.83;29.33;;;;;;;;;;5040113;28;20037;-78
2022/12/17 23:11:47;;;;;;;74.22;32.60;;;;;;;;;;5037097;28;20033;-77
2022/12/17 23:14:12;;;;;;;83.03;33.88;;;;;;;;;;5036466;28;20037;-77
2022/12/17 23:16:39;;;;;;;76.07;32.42;;;;;;;;;;5041889;28;20033;-78
2022/12/17 23:19:05;;;;;;;76.20;31.60;;;;;;;;;;5041138;28;20030;-78
2022/12/17 23:21:31;;;;;;;76.55;32.53;;;;;;;;;;5034439;28;20065;-77
2022/12/17 23:23:57;;;;;;;81.47;32.20;;;;;;;;;;5033491;28;20467;-79
2022/12/17 23:26:24;;;;;;;73.25;30.50;;;;;;;;;;5032238;28;20061;-77
2022/12/17 23:28:57;;;;;;;73.47;31.75;;;;;;;;;;5036946;28;20029;-78
2022/12/17 23:31:23;;;;;;;71.43;31.83;;;;;;;;;;5033449;28;20021;-78
2022/12/17 23:33:49;;;;;;;72.15;30.40;;;;;;;;;;5033907;28;20534;-78
2022/12/17 23:36:16;;;;;;;67.60;29.58;;;;;;;;;;5032864;28;20037;-78
2022/12/17 23:38:42;;;;;;;66.68;29.45;;;;;;;;;;5037370;28;20105;-78
2022/12/17 23:41:23;;;;;;;62.17;28.40;;;;;;;;;;5035759;28;20047;-76
2022/12/17 23:43:49;;;;;;;66.40;29.50;;;;;;;;;;5036478;28;20035;-78
2022/12/17 23:46:16;;;;;;;56.80;25.38;;;;;;;;;;5034713;28;20032;-77
2022/12/17 23:48:43;;;;;;;66.35;26.25;;;;;;;;;;5034834;28;20230;-77
2022/12/17 23:51:10;;;;;;;60.22;26.65;;;;;;;;;;5034621;28;20065;-76
2022/12/17 23:53:36;;;;;;;62.38;27.33;;;;;;;;;;5035512;28;20108;-79
2022/12/17 23:56:09;;;;;;;59.00;26.20;;;;;;;;;;5034529;28;20030;-77
2022/12/17 23:58:35;;;;;;;55.35;26.45;;;;;;;;;;5035418;28;20045;-77
